createdAt,value
2022-12-19T00:01:16.011Z,84.50
2022-12-19T00:11:20.349Z,85.26
2022-12-19T00:21:26.426Z,84.86
2022-12-19T00:31:31.311Z,85.08
2022-12-19T00:41:37.638Z,86.45
2022-12-19T00:51:44.626Z,86.63
2022-12-19T01:01:48.843Z,87.11
2022-12-19T01:12:09.091Z,87.25
2022-12-19T01:22:13.343Z,88.25
2022-12-19T01:32:16.119Z,89.25
2022-12-19T01:42:23.466Z,86.69
2022-12-19T01:52:27.057Z,87.86
2022-12-19T02:02:34.682Z,87.30
2022-12-19T02:12:38.835Z,88.60
2022-12-19T02:22:52.019Z,88.79
2022-12-19T02:33:04.385Z,88.15
2022-12-19T02:43:09.946Z,88.74
2022-12-19T02:53:16.894Z,88.08
2022-12-19T03:03:28.750Z,88.95
2022-12-19T03:13:36.381Z,88.86
2022-12-19T03:23:40.228Z,90.85
2022-12-19T03:33:46.379Z,90.64
2022-12-19T03:43:49.402Z,92.37
2022-12-19T03:54:01.596Z,94.40
2022-12-19T04:04:05.989Z,93.91
2022-12-19T04:14:15.978Z,95.04
2022-12-19T04:24:23.501Z,96.11
2022-12-19T04:34:27.589Z,94.90
2022-12-19T04:44:30.324Z,95.52
2022-12-19T04:54:35.239Z,96.23
2022-12-19T05:04:37.957Z,95.11
2022-12-19T05:14:41.973Z,95.74
2022-12-19T05:24:44.731Z,96.77
2022-12-19T05:34:48.786Z,96.62
2022-12-19T05:44:51.453Z,95.95
2022-12-19T05:54:55.483Z,97.42
2022-12-19T06:04:58.167Z,96.06
2022-12-19T06:15:03.356Z,96.36
2022-12-19T06:25:07.691Z,96.61
2022-12-19T06:35:11.946Z,97.36
2022-12-19T06:45:14.663Z,96.86
2022-12-19T06:55:18.997Z,97.10
2022-12-19T07:05:22.754Z,97.22
2022-12-19T07:15:27.377Z,97.55
2022-12-19T07:25:30.095Z,99.07
2022-12-19T07:35:34.255Z,98.90
2022-12-19T07:45:38.788Z,99.13
2022-12-19T07:55:42.871Z,99.58
2022-12-19T08:05:45.746Z,99.99
2022-12-19T08:15:50.019Z,100.69
2022-12-19T08:26:01.145Z,99.84
2022-12-19T08:36:06.032Z,100.53
2022-12-19T08:46:09.921Z,100.73
2022-12-19T08:56:15.677Z,100.06
2022-12-19T09:06:19.329Z,101.24
2022-12-19T09:16:25.120Z,101.28
2022-12-19T09:26:28.446Z,101.13
2022-12-19T09:36:37.841Z,101.43
2022-12-19T09:46:48.364Z,101.57
2022-12-19T09:57:00.699Z,102.17
2022-12-19T10:07:18.408Z,102.34
2022-12-19T10:17:35.614Z,102.54
2022-12-19T10:27:58.833Z,102.46
2022-12-19T10:38:23.240Z,102.61
2022-12-19T10:48:30.370Z,102.74
2022-12-19T10:58:37.556Z,102.84
2022-12-19T11:08:40.304Z,102.01
2022-12-19T11:29:14.353Z,101.87
2022-12-19T11:32:01.665Z,101.51
2022-12-19T11:39:49.163Z,101.40
2022-12-19T11:49:58.322Z,101.33
2022-12-19T12:00:05.287Z,101.68
2022-12-19T12:14:49.837Z,101.67
2022-12-19T12:31:20.528Z,101.96
2022-12-19T12:42:19.648Z,101.28
2022-12-19T12:52:28.623Z,100.78
2022-12-19T13:02:34.467Z,100.20
2022-12-19T13:13:01.083Z,99.67
2022-12-19T13:23:20.807Z,100.15
2022-12-19T13:33:23.596Z,100.00
2022-12-19T13:43:49.771Z,99.83
2022-12-19T13:53:59.858Z,99.42
2022-12-19T14:04:08.932Z,99.99
2022-12-19T14:14:34.662Z,99.79
2022-12-19T14:24:39.385Z,100.47
2022-12-19T14:36:06.325Z,100.06
2022-12-19T14:52:08.329Z,99.49
2022-12-19T14:56:28.151Z,99.51
2022-12-19T15:07:08.730Z,99.94
2022-12-19T15:17:05.966Z,100.20
2022-12-19T15:27:14.442Z,99.71
2022-12-19T15:37:18.137Z,99.43
2022-12-19T15:47:30.206Z,99.59
2022-12-19T15:57:36.407Z,99.57
2022-12-19T16:07:40.494Z,99.79
2022-12-19T16:17:43.188Z,99.77
2022-12-19T16:27:52.854Z,98.98
2022-12-19T16:37:55.678Z,98.91
2022-12-19T16:48:00.446Z,98.04
2022-12-19T16:58:03.283Z,96.50
2022-12-19T17:08:12.617Z,95.36
2022-12-19T17:18:18.251Z,94.92
2022-12-19T17:28:22.408Z,92.66
2022-12-19T17:38:27.381Z,92.71
2022-12-19T17:48:33.175Z,94.78
2022-12-19T17:58:35.846Z,96.51
2022-12-19T18:08:40.177Z,95.68
2022-12-19T18:18:43.389Z,95.20
2022-12-19T18:28:47.511Z,93.18
2022-12-19T18:38:50.731Z,93.41
2022-12-19T18:48:55.587Z,93.66
2022-12-19T18:58:58.541Z,90.80
2022-12-19T19:09:02.738Z,89.33
2022-12-19T19:19:07.983Z,88.18
2022-12-19T19:29:13.696Z,90.66
2022-12-19T19:39:17.401Z,88.65
2022-12-19T19:49:22.431Z,89.73
2022-12-19T19:59:25.222Z,89.72
2022-12-19T20:09:29.569Z,89.56
2022-12-19T20:19:32.358Z,90.73
2022-12-19T20:29:36.530Z,89.90
2022-12-19T20:39:39.648Z,91.16
2022-12-19T20:49:44.516Z,90.57
2022-12-19T20:59:47.257Z,91.07
2022-12-19T21:09:53.868Z,91.34
2022-12-19T21:19:56.541Z,92.02
2022-12-19T21:30:01.003Z,89.31
2022-12-19T21:40:04.255Z,91.00
2022-12-19T21:50:10.779Z,89.31
2022-12-19T22:00:14.778Z,88.80
2022-12-19T22:10:19.241Z,88.29
2022-12-19T22:20:21.946Z,86.58
2022-12-19T22:30:26.072Z,85.59
2022-12-19T22:40:28.766Z,86.05
2022-12-19T22:50:32.810Z,84.96
2022-12-19T23:00:35.810Z,84.49
2022-12-19T23:10:39.865Z,84.83
2022-12-19T23:20:42.740Z,84.92
2022-12-19T23:30:46.806Z,83.98
2022-12-19T23:40:49.489Z,84.40
2022-12-19T23:50:59.958Z,84.41
